sensor_id;sensor_type;location;lat;lon;timestamp;temperature;humidity
19003;DHT22;9634;51.040;13.794;2022-08-02T00:00:30;26.10;99.90
19003;DHT22;9634;51.040;13.794;2022-08-02T00:05:33;26.10;99.90
19003;DHT22;9634;51.040;13.794;2022-08-02T00:10:37;26.10;99.90
19003;DHT22;9634;51.040;13.794;2022-08-02T00:15:39;26.10;99.90
19003;DHT22;9634;51.040;13.794;2022-08-02T00:20:41;26.10;99.90
19003;DHT22;9634;51.040;13.794;2022-08-02T00:25:45;26.10;99.90
19003;DHT22;9634;51.040;13.794;2022-08-02T00:30:47;26.10;99.90
19003;DHT22;9634;51.040;13.794;2022-08-02T00:35:50;26.10;99.90
19003;DHT22;9634;51.040;13.794;2022-08-02T00:40:53;26.10;99.90
19003;DHT22;9634;51.040;13.794;2022-08-02T00:45:56;26.10;99.90
19003;DHT22;9634;51.040;13.794;2022-08-02T00:50:58;26.10;99.90
19003;DHT22;9634;51.040;13.794;2022-08-02T00:56:02;26.10;99.90
19003;DHT22;9634;51.040;13.794;2022-08-02T01:01:04;26.10;99.90
19003;DHT22;9634;51.040;13.794;2022-08-02T01:06:07;26.10;99.90
19003;DHT22;9634;51.040;13.794;2022-08-02T01:11:10;26.10;99.90
19003;DHT22;9634;51.040;13.794;2022-08-02T01:16:17;26.10;99.90
19003;DHT22;9634;51.040;13.794;2022-08-02T01:21:34;26.10;99.90
19003;DHT22;9634;51.040;13.794;2022-08-02T01:26:47;26.10;99.90
19003;DHT22;9634;51.040;13.794;2022-08-02T01:31:57;26.10;99.90
19003;DHT22;9634;51.040;13.794;2022-08-02T01:37:04;26.10;99.90
19003;DHT22;9634;51.040;13.794;2022-08-02T01:42:10;26.10;99.90
19003;DHT22;9634;51.040;13.794;2022-08-02T01:47:16;26.10;99.90
19003;DHT22;9634;51.040;13.794;2022-08-02T01:52:20;26.10;99.90
19003;DHT22;9634;51.040;13.794;2022-08-02T01:57:26;26.10;99.90
19003;DHT22;9634;51.040;13.794;2022-08-02T02:02:36;26.10;99.90
19003;DHT22;9634;51.040;13.794;2022-08-02T02:07:42;26.10;99.90
19003;DHT22;9634;51.040;13.794;2022-08-02T02:12:48;26.10;99.90
19003;DHT22;9634;51.040;13.794;2022-08-02T02:17:53;26.10;99.90
19003;DHT22;9634;51.040;13.794;2022-08-02T02:22:58;26.10;99.90
19003;DHT22;9634;51.040;13.794;2022-08-02T02:28:02;26.10;99.90
19003;DHT22;9634;51.040;13.794;2022-08-02T02:33:07;26.00;99.90
19003;DHT22;9634;51.040;13.794;2022-08-02T02:38:13;26.10;99.90
19003;DHT22;9634;51.040;13.794;2022-08-02T02:43:17;26.10;99.90
19003;DHT22;9634;51.040;13.794;2022-08-02T02:48:23;26.10;99.90
19003;DHT22;9634;51.040;13.794;2022-08-02T02:53:26;26.10;99.90
19003;DHT22;9634;51.040;13.794;2022-08-02T02:58:30;26.00;99.90
19003;DHT22;9634;51.040;13.794;2022-08-02T03:03:35;26.00;99.90
19003;DHT22;9634;51.040;13.794;2022-08-02T03:08:38;26.00;99.90
19003;DHT22;9634;51.040;13.794;2022-08-02T03:13:40;26.00;99.90
19003;DHT22;9634;51.040;13.794;2022-08-02T03:18:44;26.10;99.90
19003;DHT22;9634;51.040;13.794;2022-08-02T03:23:47;26.10;99.90
19003;DHT22;9634;51.040;13.794;2022-08-02T03:28:49;26.00;99.90
19003;DHT22;9634;51.040;13.794;2022-08-02T03:33:54;26.10;99.90
19003;DHT22;9634;51.040;13.794;2022-08-02T03:38:58;26.10;99.90
19003;DHT22;9634;51.040;13.794;2022-08-02T03:44:01;26.00;99.90
19003;DHT22;9634;51.040;13.794;2022-08-02T03:49:06;26.00;99.90
19003;DHT22;9634;51.040;13.794;2022-08-02T03:54:09;26.00;99.90
19003;DHT22;9634;51.040;13.794;2022-08-02T03:59:13;26.00;99.90
19003;DHT22;9634;51.040;13.794;2022-08-02T04:04:17;26.10;99.90
19003;DHT22;9634;51.040;13.794;2022-08-02T04:09:19;26.10;99.90
19003;DHT22;9634;51.040;13.794;2022-08-02T04:14:21;26.10;99.90
19003;DHT22;9634;51.040;13.794;2022-08-02T04:19:28;26.00;99.90
19003;DHT22;9634;51.040;13.794;2022-08-02T04:24:37;26.00;99.90
19003;DHT22;9634;51.040;13.794;2022-08-02T04:29:41;26.00;99.90
19003;DHT22;9634;51.040;13.794;2022-08-02T04:34:45;26.00;99.90
19003;DHT22;9634;51.040;13.794;2022-08-02T04:39:47;26.00;99.90
19003;DHT22;9634;51.040;13.794;2022-08-02T04:44:51;26.10;99.90
19003;DHT22;9634;51.040;13.794;2022-08-02T04:49:55;26.10;99.90
19003;DHT22;9634;51.040;13.794;2022-08-02T04:54:57;26.10;99.90
19003;DHT22;9634;51.040;13.794;2022-08-02T04:59:59;26.00;99.90
19003;DHT22;9634;51.040;13.794;2022-08-02T05:05:04;26.10;99.90
19003;DHT22;9634;51.040;13.794;2022-08-02T05:10:06;26.00;99.90
19003;DHT22;9634;51.040;13.794;2022-08-02T05:15:12;26.10;99.90
19003;DHT22;9634;51.040;13.794;2022-08-02T05:20:18;26.10;99.90
19003;DHT22;9634;51.040;13.794;2022-08-02T05:25:20;26.10;99.90
19003;DHT22;9634;51.040;13.794;2022-08-02T05:30:23;26.10;99.90
19003;DHT22;9634;51.040;13.794;2022-08-02T05:35:26;26.10;99.90
19003;DHT22;9634;51.040;13.794;2022-08-02T05:40:29;26.10;99.90
19003;DHT22;9634;51.040;13.794;2022-08-02T05:45:33;26.10;99.90
19003;DHT22;9634;51.040;13.794;2022-08-02T05:50:38;26.10;99.90
19003;DHT22;9634;51.040;13.794;2022-08-02T05:55:47;26.10;99.90
19003;DHT22;9634;51.040;13.794;2022-08-02T06:00:55;26.10;99.90
19003;DHT22;9634;51.040;13.794;2022-08-02T06:06:07;26.10;99.90
19003;DHT22;9634;51.040;13.794;2022-08-02T06:11:14;26.10;99.90
19003;DHT22;9634;51.040;13.794;2022-08-02T06:16:17;26.10;99.90
19003;DHT22;9634;51.040;13.794;2022-08-02T06:21:21;26.10;99.90
19003;DHT22;9634;51.040;13.794;2022-08-02T06:26:25;26.10;99.90
19003;DHT22;9634;51.040;13.794;2022-08-02T06:31:27;26.10;99.90
19003;DHT22;9634;51.040;13.794;2022-08-02T06:36:42;26.20;99.90
19003;DHT22;9634;51.040;13.794;2022-08-02T06:41:48;26.20;99.90
19003;DHT22;9634;51.040;13.794;2022-08-02T06:47:10;26.20;99.90
19003;DHT22;9634;51.040;13.794;2022-08-02T06:52:13;26.20;99.90
19003;DHT22;9634;51.040;13.794;2022-08-02T06:57:16;26.20;99.90
19003;DHT22;9634;51.040;13.794;2022-08-02T07:02:18;26.20;99.90
19003;DHT22;9634;51.040;13.794;2022-08-02T07:07:22;26.20;99.90
19003;DHT22;9634;51.040;13.794;2022-08-02T07:12:25;26.20;99.90
19003;DHT22;9634;51.040;13.794;2022-08-02T07:17:28;26.20;99.90
19003;DHT22;9634;51.040;13.794;2022-08-02T07:22:31;26.20;99.90
19003;DHT22;9634;51.040;13.794;2022-08-02T07:27:34;26.20;99.90
19003;DHT22;9634;51.040;13.794;2022-08-02T07:32:36;26.20;99.90
19003;DHT22;9634;51.040;13.794;2022-08-02T07:37:40;26.20;99.90
19003;DHT22;9634;51.040;13.794;2022-08-02T07:42:46;26.20;99.90
19003;DHT22;9634;51.040;13.794;2022-08-02T07:47:49;26.20;99.90
19003;DHT22;9634;51.040;13.794;2022-08-02T07:52:53;26.20;99.90
19003;DHT22;9634;51.040;13.794;2022-08-02T07:57:55;26.20;99.90
19003;DHT22;9634;51.040;13.794;2022-08-02T08:02:58;26.20;99.90
19003;DHT22;9634;51.040;13.794;2022-08-02T08:08:01;26.20;99.90
19003;DHT22;9634;51.040;13.794;2022-08-02T08:13:05;26.20;99.90
19003;DHT22;9634;51.040;13.794;2022-08-02T08:18:08;26.20;99.90
19003;DHT22;9634;51.040;13.794;2022-08-02T08:23:11;26.20;99.90
19003;DHT22;9634;51.040;13.794;2022-08-02T08:28:14;26.20;99.90
19003;DHT22;9634;51.040;13.794;2022-08-02T08:33:16;26.20;99.90
19003;DHT22;9634;51.040;13.794;2022-08-02T08:38:20;26.20;99.90
19003;DHT22;9634;51.040;13.794;2022-08-02T08:43:22;26.20;99.90
19003;DHT22;9634;51.040;13.794;2022-08-02T08:48:25;26.20;99.90
19003;DHT22;9634;51.040;13.794;2022-08-02T08:53:31;26.20;99.90
19003;DHT22;9634;51.040;13.794;2022-08-02T08:58:39;26.20;99.90
19003;DHT22;9634;51.040;13.794;2022-08-02T09:03:41;26.20;99.90
19003;DHT22;9634;51.040;13.794;2022-08-02T09:08:45;26.20;99.90
19003;DHT22;9634;51.040;13.794;2022-08-02T09:13:50;26.20;99.90
19003;DHT22;9634;51.040;13.794;2022-08-02T09:18:53;26.20;99.90
19003;DHT22;9634;51.040;13.794;2022-08-02T09:23:56;26.20;99.90
19003;DHT22;9634;51.040;13.794;2022-08-02T09:29:00;26.20;99.90
19003;DHT22;9634;51.040;13.794;2022-08-02T09:34:02;26.20;99.90
19003;DHT22;9634;51.040;13.794;2022-08-02T09:39:08;26.20;99.90
19003;DHT22;9634;51.040;13.794;2022-08-02T09:44:11;26.20;99.90
19003;DHT22;9634;51.040;13.794;2022-08-02T09:49:15;26.20;99.90
19003;DHT22;9634;51.040;13.794;2022-08-02T09:54:23;26.20;99.90
19003;DHT22;9634;51.040;13.794;2022-08-02T09:59:26;26.20;99.90
19003;DHT22;9634;51.040;13.794;2022-08-02T10:04:30;26.30;99.90
19003;DHT22;9634;51.040;13.794;2022-08-02T10:09:34;26.30;99.90
19003;DHT22;9634;51.040;13.794;2022-08-02T10:14:37;26.30;99.90
19003;DHT22;9634;51.040;13.794;2022-08-02T10:19:39;26.20;99.90
19003;DHT22;9634;51.040;13.794;2022-08-02T10:24:44;26.30;99.90
19003;DHT22;9634;51.040;13.794;2022-08-02T10:29:48;26.30;99.90
19003;DHT22;9634;51.040;13.794;2022-08-02T10:34:53;26.30;99.90
19003;DHT22;9634;51.040;13.794;2022-08-02T10:39:57;26.30;99.90
19003;DHT22;9634;51.040;13.794;2022-08-02T10:45:08;26.30;99.90
19003;DHT22;9634;51.040;13.794;2022-08-02T10:50:10;26.30;99.90
19003;DHT22;9634;51.040;13.794;2022-08-02T10:55:14;26.30;99.90
19003;DHT22;9634;51.040;13.794;2022-08-02T11:00:26;26.30;99.90
19003;DHT22;9634;51.040;13.794;2022-08-02T11:05:30;26.30;99.90
19003;DHT22;9634;51.040;13.794;2022-08-02T11:10:39;26.40;99.90
19003;DHT22;9634;51.040;13.794;2022-08-02T11:15:49;26.40;99.90
19003;DHT22;9634;51.040;13.794;2022-08-02T11:21:20;26.40;99.90
19003;DHT22;9634;51.040;13.794;2022-08-02T11:26:44;26.30;99.90
19003;DHT22;9634;51.040;13.794;2022-08-02T11:31:48;26.40;99.90
19003;DHT22;9634;51.040;13.794;2022-08-02T11:36:51;26.40;99.90
19003;DHT22;9634;51.040;13.794;2022-08-02T11:41:56;26.40;99.90
19003;DHT22;9634;51.040;13.794;2022-08-02T11:47:00;26.40;99.90
19003;DHT22;9634;51.040;13.794;2022-08-02T11:52:04;26.40;99.90
19003;DHT22;9634;51.040;13.794;2022-08-02T11:57:15;26.40;99.90
19003;DHT22;9634;51.040;13.794;2022-08-02T12:02:19;26.50;99.90
19003;DHT22;9634;51.040;13.794;2022-08-02T12:07:25;26.40;99.90
19003;DHT22;9634;51.040;13.794;2022-08-02T12:12:29;26.50;99.90
19003;DHT22;9634;51.040;13.794;2022-08-02T12:17:32;26.50;99.90
19003;DHT22;9634;51.040;13.794;2022-08-02T12:22:52;26.50;99.90
19003;DHT22;9634;51.040;13.794;2022-08-02T12:28:12;26.50;99.90
19003;DHT22;9634;51.040;13.794;2022-08-02T12:33:15;26.50;99.90
19003;DHT22;9634;51.040;13.794;2022-08-02T12:38:17;26.60;99.90
19003;DHT22;9634;51.040;13.794;2022-08-02T12:43:22;26.60;99.90
19003;DHT22;9634;51.040;13.794;2022-08-02T12:48:32;26.60;99.90
19003;DHT22;9634;51.040;13.794;2022-08-02T12:53:35;26.60;99.90
19003;DHT22;9634;51.040;13.794;2022-08-02T12:58:47;26.60;99.90
19003;DHT22;9634;51.040;13.794;2022-08-02T13:03:50;26.60;99.90
19003;DHT22;9634;51.040;13.794;2022-08-02T13:08:53;26.60;99.90
19003;DHT22;9634;51.040;13.794;2022-08-02T13:13:56;26.60;99.90
19003;DHT22;9634;51.040;13.794;2022-08-02T13:18:59;26.60;99.90
19003;DHT22;9634;51.040;13.794;2022-08-02T13:24:01;26.70;99.90
19003;DHT22;9634;51.040;13.794;2022-08-02T13:29:05;26.70;99.90
19003;DHT22;9634;51.040;13.794;2022-08-02T13:34:08;26.70;99.90
19003;DHT22;9634;51.040;13.794;2022-08-02T13:39:10;26.70;99.90
19003;DHT22;9634;51.040;13.794;2022-08-02T13:44:14;26.70;99.90
19003;DHT22;9634;51.040;13.794;2022-08-02T13:49:16;26.70;99.90
19003;DHT22;9634;51.040;13.794;2022-08-02T13:54:19;26.70;99.90
19003;DHT22;9634;51.040;13.794;2022-08-02T13:59:22;26.70;99.90
19003;DHT22;9634;51.040;13.794;2022-08-02T14:04:25;26.70;99.90
19003;DHT22;9634;51.040;13.794;2022-08-02T14:09:28;26.70;99.90
19003;DHT22;9634;51.040;13.794;2022-08-02T14:14:33;26.70;99.90
19003;DHT22;9634;51.040;13.794;2022-08-02T14:19:36;26.70;99.90
19003;DHT22;9634;51.040;13.794;2022-08-02T14:24:38;26.80;99.90
19003;DHT22;9634;51.040;13.794;2022-08-02T14:29:42;26.70;99.90
19003;DHT22;9634;51.040;13.794;2022-08-02T14:34:45;26.70;99.90
19003;DHT22;9634;51.040;13.794;2022-08-02T14:39:47;26.70;99.90
19003;DHT22;9634;51.040;13.794;2022-08-02T14:44:51;26.70;99.90
19003;DHT22;9634;51.040;13.794;2022-08-02T14:49:53;26.70;99.90
19003;DHT22;9634;51.040;13.794;2022-08-02T14:54:55;26.80;99.90
19003;DHT22;9634;51.040;13.794;2022-08-02T14:59:59;26.80;99.90
19003;DHT22;9634;51.040;13.794;2022-08-02T15:05:02;26.80;99.90
19003;DHT22;9634;51.040;13.794;2022-08-02T15:10:04;26.80;99.90
19003;DHT22;9634;51.040;13.794;2022-08-02T15:15:09;26.80;99.90
19003;DHT22;9634;51.040;13.794;2022-08-02T15:20:11;26.80;99.90
19003;DHT22;9634;51.040;13.794;2022-08-02T15:25:13;26.80;99.90
19003;DHT22;9634;51.040;13.794;2022-08-02T15:30:18;26.80;99.90
19003;DHT22;9634;51.040;13.794;2022-08-02T15:35:20;26.70;99.90
19003;DHT22;9634;51.040;13.794;2022-08-02T15:40:22;26.70;99.90
19003;DHT22;9634;51.040;13.794;2022-08-02T15:45:26;26.70;99.90
19003;DHT22;9634;51.040;13.794;2022-08-02T15:50:29;26.70;99.90
19003;DHT22;9634;51.040;13.794;2022-08-02T15:55:32;26.60;99.90
19003;DHT22;9634;51.040;13.794;2022-08-02T16:00:35;26.70;99.90
19003;DHT22;9634;51.040;13.794;2022-08-02T16:05:38;26.60;99.90
19003;DHT22;9634;51.040;13.794;2022-08-02T16:10:40;26.70;99.90
19003;DHT22;9634;51.040;13.794;2022-08-02T16:15:45;26.60;99.90
19003;DHT22;9634;51.040;13.794;2022-08-02T16:20:47;26.70;99.90
19003;DHT22;9634;51.040;13.794;2022-08-02T16:25:49;26.60;99.90
19003;DHT22;9634;51.040;13.794;2022-08-02T16:30:53;26.60;99.90
19003;DHT22;9634;51.040;13.794;2022-08-02T16:35:55;26.60;99.90
19003;DHT22;9634;51.040;13.794;2022-08-02T16:40:59;26.60;99.90
19003;DHT22;9634;51.040;13.794;2022-08-02T16:46:02;26.60;99.90
19003;DHT22;9634;51.040;13.794;2022-08-02T16:51:05;26.60;99.90
19003;DHT22;9634;51.040;13.794;2022-08-02T16:56:07;26.60;99.90
19003;DHT22;9634;51.040;13.794;2022-08-02T17:01:11;26.60;99.90
19003;DHT22;9634;51.040;13.794;2022-08-02T17:06:13;26.60;99.90
19003;DHT22;9634;51.040;13.794;2022-08-02T17:11:15;26.60;99.90
19003;DHT22;9634;51.040;13.794;2022-08-02T17:16:19;26.60;99.90
19003;DHT22;9634;51.040;13.794;2022-08-02T17:21:21;26.60;99.90
19003;DHT22;9634;51.040;13.794;2022-08-02T17:26:24;26.60;99.90
19003;DHT22;9634;51.040;13.794;2022-08-02T17:31:27;26.60;99.90
19003;DHT22;9634;51.040;13.794;2022-08-02T17:36:30;26.60;99.90
19003;DHT22;9634;51.040;13.794;2022-08-02T17:41:32;26.50;99.90
19003;DHT22;9634;51.040;13.794;2022-08-02T17:46:36;26.50;99.90
19003;DHT22;9634;51.040;13.794;2022-08-02T17:51:38;26.60;99.90
19003;DHT22;9634;51.040;13.794;2022-08-02T17:56:40;26.60;99.90
19003;DHT22;9634;51.040;13.794;2022-08-02T18:01:45;26.60;99.90
19003;DHT22;9634;51.040;13.794;2022-08-02T18:06:49;26.50;99.90
19003;DHT22;9634;51.040;13.794;2022-08-02T18:11:52;26.50;99.90
19003;DHT22;9634;51.040;13.794;2022-08-02T18:16:56;26.50;99.90
19003;DHT22;9634;51.040;13.794;2022-08-02T18:21:58;26.50;99.90
19003;DHT22;9634;51.040;13.794;2022-08-02T18:27:03;26.50;99.90
19003;DHT22;9634;51.040;13.794;2022-08-02T18:32:06;26.50;99.90
19003;DHT22;9634;51.040;13.794;2022-08-02T18:37:09;26.50;99.90
19003;DHT22;9634;51.040;13.794;2022-08-02T18:42:12;26.50;99.90
19003;DHT22;9634;51.040;13.794;2022-08-02T18:47:15;26.50;99.90
19003;DHT22;9634;51.040;13.794;2022-08-02T18:52:18;26.50;99.90
19003;DHT22;9634;51.040;13.794;2022-08-02T18:57:20;26.50;99.90
19003;DHT22;9634;51.040;13.794;2022-08-02T19:02:24;26.50;99.90
19003;DHT22;9634;51.040;13.794;2022-08-02T19:07:26;26.50;99.90
19003;DHT22;9634;51.040;13.794;2022-08-02T19:12:28;26.50;99.90
19003;DHT22;9634;51.040;13.794;2022-08-02T19:17:32;26.50;99.90
19003;DHT22;9634;51.040;13.794;2022-08-02T19:22:34;26.50;99.90
19003;DHT22;9634;51.040;13.794;2022-08-02T19:27:37;26.50;99.90
19003;DHT22;9634;51.040;13.794;2022-08-02T19:32:40;26.50;99.90
19003;DHT22;9634;51.040;13.794;2022-08-02T19:37:43;26.50;99.90
19003;DHT22;9634;51.040;13.794;2022-08-02T19:42:45;26.50;99.90
19003;DHT22;9634;51.040;13.794;2022-08-02T19:47:49;26.50;99.90
19003;DHT22;9634;51.040;13.794;2022-08-02T19:52:52;26.40;99.90
19003;DHT22;9634;51.040;13.794;2022-08-02T19:57:54;26.50;99.90
19003;DHT22;9634;51.040;13.794;2022-08-02T20:02:58;26.40;99.90
19003;DHT22;9634;51.040;13.794;2022-08-02T20:08:00;26.50;99.90
19003;DHT22;9634;51.040;13.794;2022-08-02T20:13:02;26.40;99.90
19003;DHT22;9634;51.040;13.794;2022-08-02T20:18:06;26.50;99.90
19003;DHT22;9634;51.040;13.794;2022-08-02T20:23:09;26.50;99.90
19003;DHT22;9634;51.040;13.794;2022-08-02T20:28:19;26.40;99.90
19003;DHT22;9634;51.040;13.794;2022-08-02T20:33:23;26.40;99.90
19003;DHT22;9634;51.040;13.794;2022-08-02T20:38:25;26.50;99.90
19003;DHT22;9634;51.040;13.794;2022-08-02T20:43:28;26.40;99.90
19003;DHT22;9634;51.040;13.794;2022-08-02T20:48:33;26.40;99.90
19003;DHT22;9634;51.040;13.794;2022-08-02T20:53:35;26.50;99.90
19003;DHT22;9634;51.040;13.794;2022-08-02T20:58:38;26.50;99.90
19003;DHT22;9634;51.040;13.794;2022-08-02T21:03:41;26.40;99.90
19003;DHT22;9634;51.040;13.794;2022-08-02T21:08:44;26.40;99.90
19003;DHT22;9634;51.040;13.794;2022-08-02T21:13:47;26.40;99.90
19003;DHT22;9634;51.040;13.794;2022-08-02T21:18:50;26.40;99.90
19003;DHT22;9634;51.040;13.794;2022-08-02T21:23:55;26.40;99.90
19003;DHT22;9634;51.040;13.794;2022-08-02T21:28:59;26.40;99.90
19003;DHT22;9634;51.040;13.794;2022-08-02T21:34:02;26.40;99.90
19003;DHT22;9634;51.040;13.794;2022-08-02T21:39:06;26.40;99.90
19003;DHT22;9634;51.040;13.794;2022-08-02T21:44:08;26.40;99.90
19003;DHT22;9634;51.040;13.794;2022-08-02T21:49:12;26.40;99.90
19003;DHT22;9634;51.040;13.794;2022-08-02T21:54:14;26.40;99.90
19003;DHT22;9634;51.040;13.794;2022-08-02T21:59:17;26.40;99.90
19003;DHT22;9634;51.040;13.794;2022-08-02T22:04:21;26.40;99.90
19003;DHT22;9634;51.040;13.794;2022-08-02T22:09:24;26.40;99.90
19003;DHT22;9634;51.040;13.794;2022-08-02T22:14:27;26.40;99.90
19003;DHT22;9634;51.040;13.794;2022-08-02T22:19:30;26.40;99.90
19003;DHT22;9634;51.040;13.794;2022-08-02T22:24:33;26.40;99.90
19003;DHT22;9634;51.040;13.794;2022-08-02T22:29:35;26.40;99.90
19003;DHT22;9634;51.040;13.794;2022-08-02T22:34:39;26.40;99.90
19003;DHT22;9634;51.040;13.794;2022-08-02T22:39:41;26.40;99.90
19003;DHT22;9634;51.040;13.794;2022-08-02T22:44:43;26.40;99.90
19003;DHT22;9634;51.040;13.794;2022-08-02T22:49:47;26.40;99.90
19003;DHT22;9634;51.040;13.794;2022-08-02T22:54:49;26.40;99.90
19003;DHT22;9634;51.040;13.794;2022-08-02T22:59:51;26.40;99.90
19003;DHT22;9634;51.040;13.794;2022-08-02T23:04:55;26.40;99.90
19003;DHT22;9634;51.040;13.794;2022-08-02T23:09:57;26.40;99.90
19003;DHT22;9634;51.040;13.794;2022-08-02T23:15:00;26.40;99.90
19003;DHT22;9634;51.040;13.794;2022-08-02T23:20:04;26.30;99.90
19003;DHT22;9634;51.040;13.794;2022-08-02T23:25:07;26.30;99.90
19003;DHT22;9634;51.040;13.794;2022-08-02T23:30:10;26.30;99.90
19003;DHT22;9634;51.040;13.794;2022-08-02T23:35:14;26.40;99.90
19003;DHT22;9634;51.040;13.794;2022-08-02T23:40:17;26.40;99.90
19003;DHT22;9634;51.040;13.794;2022-08-02T23:45:19;26.40;99.90
19003;DHT22;9634;51.040;13.794;2022-08-02T23:50:23;26.30;99.90
19003;DHT22;9634;51.040;13.794;2022-08-02T23:55:25;26.30;99.90
